createdAt,value
2023-03-04T00:00:36.164Z,14.53
2023-03-04T00:04:37.350Z,15.20
2023-03-04T00:08:38.635Z,15.67
2023-03-04T00:12:39.913Z,14.20
2023-03-04T00:16:41.147Z,15.23
2023-03-04T00:20:42.354Z,13.67
2023-03-04T00:24:43.527Z,12.10
2023-03-04T00:28:44.779Z,11.83
2023-03-04T00:32:46.028Z,13.33
2023-03-04T00:36:47.795Z,10.80
2023-03-04T00:40:48.953Z,12.00
2023-03-04T00:44:51.366Z,10.83
2023-03-04T00:48:52.547Z,13.17
2023-03-04T00:52:53.750Z,13.83
2023-03-04T00:56:54.928Z,13.73
2023-03-04T01:00:56.158Z,16.90
2023-03-04T01:04:57.267Z,17.20
2023-03-04T01:08:58.443Z,16.37
2023-03-04T01:12:59.627Z,15.07
2023-03-04T01:17:01.097Z,17.53
2023-03-04T01:21:02.532Z,15.97
2023-03-04T01:25:04.621Z,15.87
2023-03-04T01:29:06.205Z,16.20
2023-03-04T01:33:07.387Z,15.93
2023-03-04T01:37:08.680Z,17.23
2023-03-04T01:41:12.140Z,15.73
2023-03-04T01:45:16.202Z,17.50
2023-03-04T01:49:17.651Z,15.10
2023-03-04T01:53:24.624Z,15.03
2023-03-04T01:57:25.930Z,14.90
2023-03-04T02:01:27.100Z,14.80
2023-03-04T02:05:29.860Z,15.20
2023-03-04T02:09:32.654Z,15.73
2023-03-04T02:13:34.981Z,15.67
2023-03-04T02:17:36.469Z,12.20
2023-03-04T02:21:37.634Z,14.60
2023-03-04T02:25:51.168Z,13.60
2023-03-04T02:29:52.231Z,13.80
2023-03-04T02:33:55.600Z,16.07
2023-03-04T02:37:56.753Z,15.67
2023-03-04T02:41:59.506Z,15.90
2023-03-04T02:46:00.868Z,14.80
2023-03-04T02:50:02.026Z,15.17
2023-03-04T02:54:03.185Z,16.03
2023-03-04T02:58:04.546Z,17.50
2023-03-04T03:02:07.166Z,17.50
2023-03-04T03:06:08.618Z,16.80
2023-03-04T03:10:10.738Z,17.07
2023-03-04T03:14:12.002Z,16.60
2023-03-04T03:18:13.258Z,17.17
2023-03-04T03:22:14.334Z,17.30
2023-03-04T03:26:16.102Z,17.87
2023-03-04T03:30:18.028Z,18.53
2023-03-04T03:34:19.261Z,19.70
2023-03-04T03:38:20.314Z,19.23
2023-03-04T03:42:21.526Z,19.40
2023-03-04T03:46:22.592Z,14.80
2023-03-04T03:50:23.745Z,18.67
2023-03-04T03:54:24.889Z,17.90
2023-03-04T03:58:26.439Z,19.70
2023-03-04T04:02:27.723Z,17.93
2023-03-04T04:06:28.977Z,17.23
2023-03-04T04:10:30.150Z,18.53
2023-03-04T04:14:32.193Z,19.43
2023-03-04T04:18:33.348Z,19.50
2023-03-04T04:22:34.661Z,20.30
2023-03-04T04:26:35.805Z,20.03
2023-03-04T04:30:37.499Z,19.37
2023-03-04T04:34:38.611Z,19.00
2023-03-04T04:38:39.770Z,18.83
2023-03-04T04:42:40.917Z,19.00
2023-03-04T04:46:42.596Z,19.73
2023-03-04T04:50:43.760Z,18.97
2023-03-04T04:54:44.910Z,20.20
2023-03-04T04:58:47.069Z,20.40
2023-03-04T05:02:48.236Z,21.80
2023-03-04T05:06:49.389Z,23.57
2023-03-04T05:10:51.844Z,23.50
2023-03-04T05:14:52.894Z,20.80
2023-03-04T05:18:54.059Z,22.50
2023-03-04T05:22:55.424Z,21.57
2023-03-04T05:26:56.774Z,20.83
2023-03-04T05:30:57.986Z,21.00
2023-03-04T05:34:59.198Z,24.27
2023-03-04T05:39:01.256Z,20.87
2023-03-04T05:43:02.718Z,20.93
2023-03-04T05:47:03.882Z,22.10
2023-03-04T05:51:05.353Z,22.47
2023-03-04T05:55:07.225Z,26.20
2023-03-04T05:59:08.397Z,21.90
2023-03-04T06:03:14.408Z,23.17
2023-03-04T06:07:15.670Z,24.50
2023-03-04T06:11:16.925Z,24.60
2023-03-04T06:15:18.241Z,23.33
2023-03-04T06:19:19.545Z,26.70
2023-03-04T06:23:20.614Z,24.80
2023-03-04T06:27:21.752Z,27.73
2023-03-04T06:31:22.886Z,26.73
2023-03-04T06:35:24.122Z,26.93
2023-03-04T06:39:25.353Z,30.17
2023-03-04T06:43:26.507Z,29.70
2023-03-04T06:47:28.253Z,28.30
2023-03-04T06:51:29.785Z,29.07
2023-03-04T06:55:30.977Z,30.40
2023-03-04T06:59:32.291Z,28.40
2023-03-04T07:03:33.457Z,28.30
2023-03-04T07:07:34.635Z,29.20
2023-03-04T07:11:35.892Z,31.30
2023-03-04T07:15:37.347Z,28.93
2023-03-04T07:19:38.716Z,30.40
2023-03-04T07:23:40.684Z,28.33
2023-03-04T07:27:41.841Z,30.83
2023-03-04T07:31:44.096Z,31.73
2023-03-04T07:35:45.373Z,33.17
2023-03-04T07:39:47.798Z,29.40
2023-03-04T07:43:48.981Z,32.00
2023-03-04T07:47:50.729Z,29.57
2023-03-04T07:51:51.888Z,31.67
2023-03-04T07:55:53.097Z,31.50
2023-03-04T07:59:54.239Z,30.97
2023-03-04T08:03:56.379Z,36.97
2023-03-04T08:07:57.525Z,30.07
2023-03-04T08:11:58.735Z,32.53
2023-03-04T08:16:00.008Z,30.07
2023-03-04T08:20:01.158Z,28.87
2023-03-04T08:24:05.306Z,31.40
2023-03-04T08:28:07.419Z,30.10
2023-03-04T08:32:08.682Z,28.97
2023-03-04T08:36:10.386Z,14.77
2023-03-04T08:40:12.588Z,31.17
2023-03-04T08:44:13.923Z,31.17
2023-03-04T08:48:16.073Z,30.73
2023-03-04T08:52:17.232Z,31.90
2023-03-04T08:56:18.390Z,32.50
2023-03-04T09:00:20.483Z,28.50
2023-03-04T09:04:21.702Z,31.40
2023-03-04T09:08:23.235Z,31.33
2023-03-04T09:12:24.381Z,30.77
2023-03-04T09:16:25.590Z,31.40
2023-03-04T09:20:26.813Z,32.83
2023-03-04T09:24:27.983Z,29.40
2023-03-04T09:28:29.151Z,30.57
2023-03-04T09:32:30.449Z,30.27
2023-03-04T09:36:31.655Z,30.67
2023-03-04T09:40:48.328Z,29.27
2023-03-04T09:44:50.077Z,30.07
2023-03-04T09:48:54.136Z,31.10
2023-03-04T09:53:19.116Z,32.00
2023-03-04T09:57:38.934Z,28.67
2023-03-04T10:01:55.688Z,25.53
2023-03-04T10:06:06.300Z,26.77
2023-03-04T10:10:14.506Z,27.47
2023-03-04T10:14:19.460Z,23.07
2023-03-04T10:18:24.237Z,22.27
2023-03-04T10:22:47.296Z,22.20
2023-03-04T10:26:58.154Z,21.73
2023-03-04T10:31:02.313Z,25.27
2023-03-04T10:35:06.533Z,22.10
2023-03-04T10:39:12.288Z,22.87
2023-03-04T10:43:16.756Z,20.63
2023-03-04T10:47:18.140Z,23.20
2023-03-04T10:51:23.006Z,20.17
2023-03-04T10:55:29.531Z,19.17
2023-03-04T10:59:52.837Z,19.97
2023-03-04T11:03:55.238Z,21.40
2023-03-04T11:07:59.261Z,20.30
2023-03-04T11:12:02.625Z,21.60
2023-03-04T11:16:06.152Z,20.40
2023-03-04T11:20:26.563Z,18.87
2023-03-04T11:24:30.336Z,18.40
2023-03-04T11:28:41.344Z,17.73
2023-03-04T11:32:45.728Z,16.77
2023-03-04T11:37:11.761Z,18.57
2023-03-04T11:41:18.556Z,18.60
2023-03-04T11:45:29.168Z,16.97
2023-03-04T11:49:39.006Z,16.07
2023-03-04T11:53:56.323Z,15.97
2023-03-04T11:58:12.958Z,16.10
2023-03-04T12:02:20.437Z,18.00
2023-03-04T12:06:42.430Z,17.30
2023-03-04T12:10:53.426Z,17.83
2023-03-04T12:15:22.295Z,19.90
2023-03-04T12:19:35.049Z,17.73
2023-03-04T12:23:43.164Z,18.03
2023-03-04T12:27:56.896Z,20.03
2023-03-04T12:32:08.139Z,19.17
2023-03-04T12:36:13.075Z,18.40
2023-03-04T12:40:24.207Z,15.93
2023-03-04T12:44:25.762Z,20.60
2023-03-04T12:48:31.055Z,22.10
2023-03-04T12:52:45.368Z,30.47
2023-03-04T12:56:53.088Z,24.63
2023-03-04T13:01:22.060Z,18.90
2023-03-04T13:05:45.033Z,20.77
2023-03-04T13:10:07.747Z,18.40
2023-03-04T13:14:17.430Z,17.07
2023-03-04T13:18:28.432Z,16.07
2023-03-04T13:22:42.568Z,15.87
2023-03-04T13:26:43.766Z,16.33
2023-03-04T13:30:58.851Z,9.17
2023-03-04T13:35:00.035Z,13.53
2023-03-04T13:39:05.003Z,16.67
2023-03-04T13:43:27.948Z,16.27
2023-03-04T13:47:36.071Z,17.03
2023-03-04T13:51:45.513Z,14.70
2023-03-04T13:56:02.767Z,16.13
2023-03-04T14:00:07.740Z,16.13
2023-03-04T14:04:22.072Z,14.47
2023-03-04T14:08:25.227Z,13.70
2023-03-04T14:12:29.123Z,12.20
2023-03-04T14:16:33.156Z,14.70
2023-03-04T14:20:37.177Z,12.87
2023-03-04T14:24:38.333Z,9.33
2023-03-04T14:28:48.108Z,10.97
2023-03-04T14:32:52.165Z,7.80
2023-03-04T14:36:53.431Z,8.03
2023-03-04T14:41:07.115Z,7.17
2023-03-04T14:45:12.201Z,7.10
2023-03-04T14:49:14.708Z,8.40
2023-03-04T14:53:18.771Z,8.90
2023-03-04T14:57:26.814Z,7.17
2023-03-04T15:01:33.954Z,7.70
2023-03-04T15:05:36.149Z,7.87
2023-03-04T15:09:40.118Z,7.57
2023-03-04T15:13:45.095Z,7.57
2023-03-04T15:17:50.066Z,6.73
2023-03-04T15:21:55.330Z,8.17
2023-03-04T15:26:03.039Z,7.63
2023-03-04T15:30:09.063Z,8.37
2023-03-04T15:34:15.927Z,7.10
2023-03-04T15:38:18.187Z,7.13
2023-03-04T15:42:19.333Z,8.23
2023-03-04T15:46:21.222Z,11.30
2023-03-04T15:50:26.151Z,9.77
2023-03-04T15:54:28.215Z,10.47
2023-03-04T15:58:32.606Z,6.80
2023-03-04T16:02:33.983Z,7.53
2023-03-04T16:06:35.345Z,9.10
2023-03-04T16:10:36.523Z,11.53
2023-03-04T16:14:38.790Z,13.50
2023-03-04T16:18:41.120Z,11.87
2023-03-04T16:22:44.692Z,12.30
2023-03-04T16:26:46.637Z,9.47
2023-03-04T16:30:48.924Z,9.10
2023-03-04T16:34:50.122Z,9.83
2023-03-04T16:38:53.893Z,9.33
2023-03-04T16:42:55.687Z,9.37
2023-03-04T16:46:56.836Z,14.03
2023-03-04T16:50:58.703Z,10.50
2023-03-04T16:55:00.088Z,9.90
2023-03-04T16:59:01.332Z,11.63
2023-03-04T17:03:03.712Z,11.90
2023-03-04T17:07:04.825Z,9.50
2023-03-04T17:11:05.996Z,8.70
2023-03-04T17:15:10.789Z,9.20
2023-03-04T17:19:11.979Z,10.90
2023-03-04T17:23:13.165Z,9.67
2023-03-04T17:27:14.347Z,8.63
2023-03-04T17:31:17.312Z,10.70
2023-03-04T17:35:18.724Z,11.33
2023-03-04T17:39:20.197Z,10.67
2023-03-04T17:43:22.195Z,10.10
2023-03-04T17:47:23.482Z,11.20
2023-03-04T17:51:33.466Z,11.17
2023-03-04T17:55:34.647Z,10.87
2023-03-04T17:59:35.919Z,9.63
2023-03-04T18:03:37.041Z,9.90
2023-03-04T18:07:38.332Z,10.10
2023-03-04T18:11:41.032Z,11.40
2023-03-04T18:15:42.209Z,12.30
2023-03-04T18:19:43.385Z,12.30
2023-03-04T18:23:44.925Z,12.13
2023-03-04T18:27:46.180Z,12.20
2023-03-04T18:31:47.591Z,13.07
2023-03-04T18:35:48.889Z,11.40
2023-03-04T18:39:50.058Z,11.30
2023-03-04T18:43:51.256Z,13.03
2023-03-04T18:47:52.648Z,14.60
2023-03-04T18:51:53.955Z,14.00
2023-03-04T18:56:00.861Z,14.50
2023-03-04T19:00:04.609Z,12.20
2023-03-04T19:04:05.964Z,14.83
2023-03-04T19:08:07.182Z,13.80
2023-03-04T19:12:08.463Z,13.87
2023-03-04T19:16:09.646Z,12.80
2023-03-04T19:20:12.687Z,12.53
2023-03-04T19:24:13.915Z,13.67
2023-03-04T19:28:15.095Z,13.70
2023-03-04T19:32:19.055Z,12.60
2023-03-04T19:36:20.220Z,14.00
2023-03-04T19:40:21.383Z,13.93
2023-03-04T19:44:23.634Z,14.10
2023-03-04T19:48:24.811Z,15.43
2023-03-04T19:52:26.194Z,14.13
2023-03-04T19:56:27.759Z,13.40
2023-03-04T20:00:28.939Z,15.60
2023-03-04T20:04:30.156Z,13.00
2023-03-04T20:08:31.427Z,13.70
2023-03-04T20:12:33.781Z,14.33
2023-03-04T20:16:34.970Z,14.67
2023-03-04T20:20:38.207Z,12.33
2023-03-04T20:24:39.451Z,11.53
2023-03-04T20:28:40.851Z,12.83
2023-03-04T20:32:42.160Z,13.07
2023-03-04T20:36:43.467Z,12.00
2023-03-04T20:40:44.714Z,11.20
2023-03-04T20:44:45.887Z,11.40
2023-03-04T20:48:47.141Z,12.90
2023-03-04T20:52:48.395Z,11.00
2023-03-04T20:56:49.761Z,10.87
2023-03-04T21:00:51.473Z,12.90
2023-03-04T21:04:54.535Z,11.07
2023-03-04T21:08:58.499Z,12.10
2023-03-04T21:12:59.678Z,13.07
2023-03-04T21:17:02.864Z,12.80
2023-03-04T21:21:07.815Z,13.30
2023-03-04T21:25:09.157Z,12.43
2023-03-04T21:29:11.630Z,12.27
2023-03-04T21:33:18.336Z,12.23
2023-03-04T21:37:20.861Z,12.63
2023-03-04T21:41:23.608Z,11.50
2023-03-04T21:45:24.779Z,12.67
2023-03-04T21:49:26.705Z,11.70
2023-03-04T21:53:28.147Z,13.57
2023-03-04T21:57:29.308Z,12.70
2023-03-04T22:01:30.515Z,12.40
2023-03-04T22:05:31.709Z,13.70
2023-03-04T22:09:32.887Z,13.97
2023-03-04T22:13:34.353Z,14.23
2023-03-04T22:17:35.557Z,13.30
2023-03-04T22:21:36.711Z,13.70
2023-03-04T22:25:40.284Z,13.93
2023-03-04T22:29:41.479Z,14.73
2023-03-04T22:33:44.043Z,13.50
2023-03-04T22:37:45.288Z,14.60
2023-03-04T22:41:46.478Z,15.40
2023-03-04T22:45:48.090Z,15.20
2023-03-04T22:49:49.239Z,15.13
2023-03-04T22:53:51.124Z,16.23
2023-03-04T22:57:52.278Z,15.20
2023-03-04T23:01:53.498Z,16.07
2023-03-04T23:06:06.669Z,15.20
2023-03-04T23:10:14.716Z,16.43
2023-03-04T23:14:15.915Z,19.37
2023-03-04T23:18:17.237Z,17.07
2023-03-04T23:22:18.815Z,15.70
2023-03-04T23:26:23.179Z,17.17
2023-03-04T23:30:24.487Z,17.27
2023-03-04T23:34:25.629Z,17.43
2023-03-04T23:38:27.100Z,18.10
2023-03-04T23:42:28.245Z,16.17
2023-03-04T23:46:29.830Z,17.03
2023-03-04T23:50:31.585Z,16.93
2023-03-04T23:54:32.824Z,18.20
2023-03-04T23:58:33.877Z,18.17
